SWA3356 KSFO-KLAX
Flight info
| Callsign | SWA3356 |
|---|---|
| Flight time | N/A |
| Altitude | 27000 |
| Route | WESLA5 SUSEY EBAYE BURGL IRNMN2 |
| Aircraft | B738/M-SDE2E3FGHIRWXY/LB1 |
Departure
| Time | 2026-05-04 05:28 |
|---|---|
| Airport | San Francisco International Airport (KSFO) |
Arrival
| Time | N/A |
|---|---|
| Airport | Los Angeles International Airport (KLAX) |
| Time | Latitude | Longitude | Altitude | Speed | Heading |
|---|---|---|---|---|---|
| 2026-05-04 05:06 | 37.61658 | -122.38127 | 21 ft | 0 kts | 0° |
| 2026-05-04 05:18 | 37.61643 | -122.38128 | 23 ft | 4 kts | 11° |
| 2026-05-04 05:18 | 37.61620 | -122.38140 | 22 ft | 4 kts | 51° |
| 2026-05-04 05:18 | 37.61613 | -122.38166 | 24 ft | 3 kts | 113° |
| 2026-05-04 05:19 | 37.61616 | -122.38175 | 24 ft | 0 kts | 117° |
| 2026-05-04 05:21 | 37.61613 | -122.38167 | 24 ft | 2 kts | 118° |
| 2026-05-04 05:21 | 37.61600 | -122.38136 | 22 ft | 5 kts | 118° |
| 2026-05-04 05:21 | 37.61583 | -122.38097 | 22 ft | 5 kts | 118° |
| 2026-05-04 05:21 | 37.61574 | -122.38054 | 21 ft | 5 kts | 89° |
| 2026-05-04 05:22 | 37.61592 | -122.38010 | 21 ft | 6 kts | 47° |
| 2026-05-04 05:22 | 37.61630 | -122.37988 | 23 ft | 6 kts | 24° |
| 2026-05-04 05:22 | 37.61665 | -122.37961 | 21 ft | 6 kts | 42° |
| 2026-05-04 05:22 | 37.61679 | -122.37903 | 21 ft | 8 kts | 97° |
| 2026-05-04 05:23 | 37.61669 | -122.37822 | 21 ft | 10 kts | 98° |
| 2026-05-04 05:23 | 37.61658 | -122.37724 | 21 ft | 12 kts | 98° |
| 2026-05-04 05:23 | 37.61644 | -122.37612 | 21 ft | 14 kts | 97° |
| 2026-05-04 05:23 | 37.61636 | -122.37476 | 24 ft | 18 kts | 96° |
| 2026-05-04 05:24 | 37.61622 | -122.37316 | 23 ft | 18 kts | 98° |
| 2026-05-04 05:24 | 37.61577 | -122.37172 | 23 ft | 17 kts | 118° |
| 2026-05-04 05:24 | 37.61521 | -122.37039 | 21 ft | 17 kts | 117° |
| 2026-05-04 05:24 | 37.61467 | -122.36913 | 22 ft | 16 kts | 126° |
| 2026-05-04 05:25 | 37.61389 | -122.36812 | 21 ft | 16 kts | 131° |
| 2026-05-04 05:25 | 37.61331 | -122.36697 | 23 ft | 16 kts | 118° |
| 2026-05-04 05:25 | 37.61279 | -122.36572 | 21 ft | 16 kts | 117° |
| 2026-05-04 05:25 | 37.61229 | -122.36451 | 22 ft | 15 kts | 118° |
| 2026-05-04 05:26 | 37.61175 | -122.36327 | 21 ft | 17 kts | 119° |
| 2026-05-04 05:26 | 37.61120 | -122.36195 | 21 ft | 17 kts | 117° |
| 2026-05-04 05:26 | 37.61067 | -122.36068 | 21 ft | 16 kts | 118° |
| 2026-05-04 05:26 | 37.61069 | -122.35939 | 21 ft | 15 kts | 54° |
| 2026-05-04 05:27 | 37.61152 | -122.35867 | 21 ft | 8 kts | 29° |
| 2026-05-04 05:28 | 37.62614 | -122.39127 | 787 ft | 179 kts | 296° |
| 2026-05-04 05:29 | 37.63215 | -122.40579 | 1501 ft | 190 kts | 294° |
| 2026-05-04 05:29 | 37.63842 | -122.42111 | 2106 ft | 205 kts | 296° |
| 2026-05-04 05:29 | 37.64545 | -122.43803 | 2481 ft | 223 kts | 296° |
| 2026-05-04 05:29 | 37.65308 | -122.45539 | 3155 ft | 230 kts | 297° |
| 2026-05-04 05:31 | 37.60651 | -122.53589 | 8236 ft | 269 kts | 156° |
| 2026-05-04 05:31 | 37.58911 | -122.52649 | 9057 ft | 274 kts | 156° |
| 2026-05-04 05:32 | 37.57146 | -122.51684 | 9871 ft | 279 kts | 156° |
| 2026-05-04 05:32 | 37.55331 | -122.50719 | 10457 ft | 291 kts | 156° |
| 2026-05-04 05:32 | 37.53472 | -122.49753 | 10631 ft | 316 kts | 157° |
| 2026-05-04 05:33 | 37.49198 | -122.47449 | 11398 ft | 347 kts | 148° |
| 2026-05-04 05:33 | 37.47385 | -122.45440 | 12150 ft | 349 kts | 132° |
| 2026-05-04 05:33 | 37.45740 | -122.43177 | 12943 ft | 352 kts | 132° |
| 2026-05-04 05:33 | 37.44082 | -122.40887 | 13668 ft | 356 kts | 132° |
| 2026-05-04 05:34 | 37.42397 | -122.38565 | 14296 ft | 362 kts | 132° |
| 2026-05-04 05:34 | 37.40681 | -122.36209 | 14918 ft | 366 kts | 132° |
| 2026-05-04 05:34 | 37.38951 | -122.33843 | 15656 ft | 368 kts | 132° |
| 2026-05-04 05:34 | 37.37208 | -122.31467 | 16355 ft | 370 kts | 132° |
| 2026-05-04 05:35 | 37.35476 | -122.29111 | 17041 ft | 373 kts | 133° |
| 2026-05-04 05:35 | 37.33706 | -122.26707 | 17708 ft | 376 kts | 133° |
| 2026-05-04 05:35 | 37.31915 | -122.24280 | 18344 ft | 380 kts | 133° |
| 2026-05-04 05:35 | 37.30110 | -122.21835 | 18912 ft | 383 kts | 133° |
| 2026-05-04 05:36 | 37.28287 | -122.19369 | 19471 ft | 387 kts | 133° |
| 2026-05-04 05:36 | 37.26441 | -122.16873 | 19949 ft | 392 kts | 133° |
| 2026-05-04 05:36 | 37.24577 | -122.14356 | 20523 ft | 394 kts | 133° |
| 2026-05-04 05:36 | 37.22704 | -122.11829 | 21105 ft | 396 kts | 133° |
| 2026-05-04 05:37 | 37.20820 | -122.09288 | 21670 ft | 399 kts | 133° |
| 2026-05-04 05:37 | 37.18947 | -122.06765 | 22219 ft | 400 kts | 133° |
| 2026-05-04 05:37 | 37.17049 | -122.04209 | 22855 ft | 401 kts | 133° |
| 2026-05-04 05:38 | 37.13214 | -121.99052 | 23779 ft | 409 kts | 133° |
| 2026-05-04 05:38 | 37.11260 | -121.96427 | 24080 ft | 414 kts | 133° |
| 2026-05-04 05:38 | 37.09286 | -121.93779 | 24456 ft | 418 kts | 133° |
| 2026-05-04 05:38 | 37.07292 | -121.91104 | 24835 ft | 421 kts | 134° |
| 2026-05-04 05:39 | 37.05283 | -121.88414 | 25194 ft | 425 kts | 134° |
| 2026-05-04 05:39 | 37.03695 | -121.86288 | 25494 ft | 428 kts | 134° |